Time;durP1;ratioP1;P1;durP2;ratioP2;P2;SDS_P1;SDS_P2;PMS_P1;PMS_P2;Temp;Humidity;BMP_temperature;BMP_pressure;BME280_temperature;BME280_humidity;BME280_pressure;Samples;Min_cycle;Max_cycle;Signal;HPM_P1;HPM_P2
2020/12/11 00:01:21;;;;;;;37.93;14.85;;;;;;;6.02;100.00;101000.86;1759109;81;21214;-55
2020/12/11 00:03:48;;;;;;;39.38;15.25;;;;;;;5.99;100.00;101013.72;1759148;81;21161;-56
2020/12/11 00:06:21;;;;;;;42.67;15.38;;;;;;;5.99;100.00;101020.37;1759226;81;22339;-56
2020/12/11 00:08:49;;;;;;;45.45;15.60;;;;;;;5.97;100.00;100996.88;1758911;81;21118;-55
2020/12/11 00:11:17;;;;;;;43.42;15.60;;;;;;;6.00;100.00;100991.98;1759119;81;21062;-56
2020/12/11 00:13:45;;;;;;;42.95;16.20;;;;;;;6.01;100.00;100993.78;1759019;81;21145;-56
2020/12/11 00:16:12;;;;;;;44.73;16.70;;;;;;;6.01;100.00;100994.64;1759076;81;21141;-56
2020/12/11 00:18:40;;;;;;;49.50;17.02;;;;;;;6.03;100.00;101001.30;1759029;81;21191;-56
2020/12/11 00:21:08;;;;;;;37.78;16.10;;;;;;;6.05;100.00;100994.60;1759017;81;21074;-56
2020/12/11 00:23:35;;;;;;;47.93;16.07;;;;;;;6.03;100.00;101002.63;1759100;81;21126;-56
2020/12/11 00:26:03;;;;;;;45.70;16.67;;;;;;;6.04;100.00;100978.20;1759168;81;21130;-57
2020/12/11 00:28:30;;;;;;;50.67;16.67;;;;;;;6.05;100.00;100975.97;1759122;81;21105;-56
2020/12/11 00:30:58;;;;;;;39.42;16.02;;;;;;;6.04;100.00;100964.45;1759075;81;22154;-57
2020/12/11 00:33:26;;;;;;;43.23;16.55;;;;;;;6.02;100.00;100977.77;1759058;81;21070;-55
2020/12/11 00:35:54;;;;;;;50.83;17.80;;;;;;;6.02;100.00;100978.23;1757882;81;21145;-56
2020/12/11 00:38:22;;;;;;;42.65;15.70;;;;;;;5.99;100.00;100977.78;1762859;81;21120;-56
2020/12/11 00:40:50;;;;;;;42.60;16.05;;;;;;;5.98;100.00;100983.14;1757156;81;21054;-56
2020/12/11 00:43:18;;;;;;;39.85;15.85;;;;;;;5.98;100.00;100983.14;1757205;81;21201;-55
2020/12/11 00:45:46;;;;;;;36.35;15.13;;;;;;;5.98;100.00;100964.05;1757169;81;21065;-56
2020/12/11 00:48:13;;;;;;;40.52;15.28;;;;;;;5.98;100.00;100965.38;1757269;81;21130;-55
2020/12/11 00:50:41;;;;;;;39.18;13.40;;;;;;;6.01;100.00;100983.99;1757210;80;21165;-55
2020/12/11 00:53:08;;;;;;;36.68;14.18;;;;;;;6.01;100.00;100987.98;1757267;81;21185;-56
2020/12/11 00:55:36;;;;;;;41.10;13.25;;;;;;;6.00;100.00;100964.91;1757202;81;21193;-57
2020/12/11 00:58:04;;;;;;;33.67;12.90;;;;;;;6.02;100.00;100995.54;1757130;81;21193;-56
2020/12/11 01:00:32;;;;;;;35.73;11.88;;;;;;;6.06;100.00;100984.38;1757243;81;21137;-56
2020/12/11 01:02:59;;;;;;;34.30;11.65;;;;;;;6.05;100.00;100971.98;1757100;81;21141;-56
2020/12/11 01:05:27;;;;;;;43.02;12.98;;;;;;;6.01;100.00;100970.69;1757335;81;21126;-56
2020/12/11 01:07:54;;;;;;;31.12;10.75;;;;;;;6.01;100.00;100964.50;1757100;81;21363;-57
2020/12/11 01:10:22;;;;;;;32.88;11.68;;;;;;;6.00;100.00;100956.91;1757162;81;21034;-56
2020/12/11 01:12:49;;;;;;;36.83;12.85;;;;;;;5.97;100.00;100987.56;1757194;81;21141;-56
2020/12/11 01:15:17;;;;;;;28.47;11.03;;;;;;;5.96;100.00;100983.58;1757264;81;21142;-56
2020/12/11 01:17:45;;;;;;;40.05;11.95;;;;;;;5.94;100.00;100990.27;1757415;81;21134;-55
2020/12/11 01:20:12;;;;;;;29.67;11.33;;;;;;;5.93;100.00;100988.95;1757360;81;21211;-55
2020/12/11 01:22:40;;;;;;;41.40;11.78;;;;;;;5.91;100.00;100988.08;1729745;81;21077;-56
2020/12/11 01:25:08;;;;;;;25.35;10.48;;;;;;;5.88;100.00;100979.70;1757378;81;20952;-55
2020/12/11 01:27:36;;;;;;;30.52;11.43;;;;;;;5.87;100.00;100981.94;1757322;81;21062;-56
2020/12/11 01:30:04;;;;;;;29.55;10.75;;;;;;;5.82;100.00;100978.42;1757310;81;21102;-56
2020/12/11 01:32:32;;;;;;;28.87;10.38;;;;;;;5.78;100.00;100979.37;1757340;81;21336;-55
2020/12/11 01:35:00;;;;;;;35.98;11.25;;;;;;;5.77;100.00;100974.94;1757160;81;21140;-56
2020/12/11 01:37:28;;;;;;;43.85;11.53;;;;;;;5.76;100.00;100974.08;1756171;81;21062;-55
2020/12/11 01:39:56;;;;;;;35.43;10.70;;;;;;;5.76;100.00;100959.88;1754846;81;21066;-56
2020/12/11 01:42:24;;;;;;;25.08;9.90;;;;;;;5.73;100.00;100955.03;1754993;81;21089;-56
2020/12/11 01:44:53;;;;;;;37.15;11.40;;;;;;;5.72;100.00;100968.34;1754896;81;22453;-57
2020/12/11 01:47:21;;;;;;;29.18;10.35;;;;;;;5.70;100.00;100956.40;1754979;81;21074;-56
2020/12/11 01:49:50;;;;;;;29.77;10.72;;;;;;;5.70;100.00;100956.40;1754937;81;21053;-56
2020/12/11 01:52:18;;;;;;;37.58;11.00;;;;;;;5.71;100.00;100947.95;1754933;81;21237;-56
2020/12/11 01:54:47;;;;;;;34.18;10.45;;;;;;;5.71;100.00;100964.81;1754934;81;21153;-56
2020/12/11 01:57:40;;;;;;;24.15;9.83;;;;;;;5.71;100.00;100954.17;1754975;81;22276;-56
2020/12/11 02:00:09;;;;;;;35.15;10.10;;;;;;;5.70;100.00;100973.69;1712618;81;21081;-56
2020/12/11 02:02:38;;;;;;;29.65;10.30;;;;;;;5.65;100.00;100954.68;1754897;81;21089;-56
2020/12/11 02:05:08;;;;;;;31.35;10.35;;;;;;;5.63;100.00;100966.66;1754902;81;21093;-56
2020/12/11 02:07:40;;;;;;;30.00;11.43;;;;;;;5.61;100.00;100956.95;1754829;81;21132;-56
2020/12/11 02:10:09;;;;;;;38.80;9.93;;;;;;;5.60;100.00;100958.71;1754924;81;21368;-56
2020/12/11 02:12:37;;;;;;;28.65;9.05;;;;;;;5.56;100.00;100940.59;1754932;81;21177;-56
2020/12/11 02:15:10;;;;;;;37.33;9.80;;;;;;;5.55;100.00;100940.60;1754859;81;21160;-56
2020/12/11 02:17:37;;;;;;;22.20;8.35;;;;;;;5.53;100.00;100957.92;1754694;81;21077;-56
2020/12/11 02:20:05;;;;;;;30.40;10.65;;;;;;;5.50;100.00;100957.06;1754828;81;21101;-55
2020/12/11 02:22:33;;;;;;;28.02;9.93;;;;;;;5.47;100.00;100943.80;1754955;81;22966;-55
2020/12/11 02:25:00;;;;;;;21.23;8.90;;;;;;;5.43;100.00;100936.30;1754867;81;21062;-55
2020/12/11 02:27:28;;;;;;;43.85;11.83;;;;;;;5.44;100.00;100958.00;1754945;81;21057;-56
2020/12/11 02:29:55;;;;;;;37.08;11.60;;;;;;;5.42;100.00;100935.87;1754814;81;21153;-56
2020/12/11 02:32:23;;;;;;;29.65;11.88;;;;;;;5.40;100.00;100934.54;1754925;81;21113;-56
2020/12/11 02:34:52;;;;;;;37.25;12.58;;;;;;;5.38;100.00;100937.66;1754781;81;21402;-56
2020/12/11 02:37:19;;;;;;;43.83;12.20;;;;;;;5.36;100.00;100939.46;1772390;80;21087;-56
2020/12/11 02:39:47;;;;;;;36.88;12.35;;;;;;;5.34;100.00;100927.97;1738750;82;21079;-57
2020/12/11 02:42:14;;;;;;;41.68;13.15;;;;;;;5.31;100.00;100922.69;1768902;81;21129;-57
2020/12/11 02:44:42;;;;;;;41.70;12.28;;;;;;;5.30;100.00;100917.84;1738780;82;21146;-56
2020/12/11 02:47:14;;;;;;;33.65;12.00;;;;;;;5.28;100.00;100928.91;1768866;81;22269;-56
2020/12/11 02:49:41;;;;;;;41.50;13.35;;;;;;;5.27;100.00;100914.31;1720783;82;21205;-56
2020/12/11 02:52:09;;;;;;;34.50;12.15;;;;;;;5.24;100.00;100897.07;1769207;81;21444;-56
2020/12/11 02:54:36;;;;;;;36.77;12.40;;;;;;;5.26;100.00;100924.52;1768940;81;21304;-56
2020/12/11 02:57:04;;;;;;;42.62;13.18;;;;;;;5.22;100.00;100913.48;1738697;82;21189;-56
2020/12/11 02:59:31;;;;;;;38.73;12.40;;;;;;;5.19;100.00;100906.84;1768935;81;22230;-56
2020/12/11 03:01:59;;;;;;;35.52;13.38;;;;;;;5.14;100.00;100898.94;1738596;82;21130;-56
2020/12/11 03:04:26;;;;;;;32.25;11.57;;;;;;;5.10;100.00;100897.22;1768875;81;21150;-57
2020/12/11 03:06:54;;;;;;;32.73;12.55;;;;;;;5.06;100.00;100888.37;1738605;82;21130;-56
2020/12/11 03:09:22;;;;;;;41.58;12.80;;;;;;;5.06;100.00;100901.67;1768876;81;21177;-56
2020/12/11 03:11:50;;;;;;;32.67;12.93;;;;;;;5.04;100.00;100907.87;1738749;82;22489;-55
2020/12/11 03:14:18;;;;;;;26.57;10.55;;;;;;;5.00;100.00;100899.08;1768781;81;21082;-56
2020/12/11 03:16:45;;;;;;;35.45;11.63;;;;;;;4.98;100.00;100894.23;1738699;82;21114;-57
2020/12/11 03:19:14;;;;;;;33.33;12.00;;;;;;;4.96;100.00;100886.69;1769115;81;21130;-56
2020/12/11 03:21:41;;;;;;;31.48;11.38;;;;;;;4.96;100.00;100894.66;1768988;81;21243;-56
2020/12/11 03:24:09;;;;;;;33.18;10.50;;;;;;;4.95;100.00;100894.23;1768988;81;22189;-56
2020/12/11 03:26:37;;;;;;;27.67;10.45;;;;;;;4.92;100.00;100932.79;1738606;82;21086;-55
2020/12/11 03:29:04;;;;;;;31.80;10.82;;;;;;;4.93;100.00;100892.04;1768789;81;21150;-56
2020/12/11 03:31:33;;;;;;;27.07;10.10;;;;;;;4.90;100.00;100889.41;1738683;82;21016;-56
2020/12/11 03:34:01;;;;;;;29.20;10.15;;;;;;;4.87;100.00;100896.52;1768810;81;21197;-56
2020/12/11 03:36:29;;;;;;;26.73;10.30;;;;;;;4.84;100.00;100888.58;1768745;81;21267;-56
2020/12/11 03:38:56;;;;;;;29.20;10.43;;;;;;;4.80;100.00;100887.28;1757991;80;21096;-56
2020/12/11 03:41:24;;;;;;;33.15;9.95;;;;;;;4.76;100.00;100887.78;1757457;81;21100;-56
2020/12/11 03:43:51;;;;;;;26.77;10.63;;;;;;;4.76;100.00;100884.23;1757577;81;21068;-56
2020/12/11 03:46:21;;;;;;;25.30;9.78;;;;;;;4.79;100.00;100885.09;1757507;81;21048;-56
2020/12/11 03:48:50;;;;;;;29.82;10.08;;;;;;;4.84;100.00;100888.58;1757657;81;21492;-56
2020/12/11 03:51:19;;;;;;;33.63;9.88;;;;;;;4.86;100.00;100881.48;1757562;81;21202;-56
2020/12/11 03:53:47;;;;;;;25.43;9.35;;;;;;;4.88;100.00;100887.66;1757537;81;21148;-56
2020/12/11 03:56:15;;;;;;;28.27;10.32;;;;;;;4.88;100.00;100881.02;1757379;81;21129;-55
2020/12/11 03:58:43;;;;;;;29.15;9.95;;;;;;;4.86;100.00;100889.45;1757534;81;21155;-55
2020/12/11 04:01:12;;;;;;;28.50;9.20;;;;;;;4.84;100.00;100908.94;1757433;81;21353;-55
2020/12/11 04:03:40;;;;;;;25.32;8.73;;;;;;;4.82;100.00;100882.84;1757490;81;21080;-56
2020/12/11 04:06:09;;;;;;;28.45;9.05;;;;;;;4.79;100.00;100878.88;1757538;81;21069;-56
2020/12/11 04:08:38;;;;;;;25.37;9.13;;;;;;;4.77;100.00;100880.67;1757396;80;21499;-56
2020/12/11 04:11:11;;;;;;;28.73;8.68;;;;;;;4.75;100.00;100889.11;1757542;81;21112;-60
2020/12/11 04:13:39;;;;;;;24.02;9.63;;;;;;;4.73;100.00;100879.81;1757437;81;21378;-56
2020/12/11 04:16:08;;;;;;;23.77;8.60;;;;;;;4.72;100.00;100882.93;1757433;81;21084;-57
2020/12/11 04:18:36;;;;;;;29.18;9.30;;;;;;;4.71;100.00;100878.52;1757530;81;21195;-57
2020/12/11 04:21:03;;;;;;;24.65;8.78;;;;;;;4.71;100.00;100868.32;1757591;81;21167;-57
2020/12/11 04:23:31;;;;;;;22.25;8.88;;;;;;;4.71;100.00;100868.32;1757477;81;21214;-56
2020/12/11 04:25:59;;;;;;;22.93;8.05;;;;;;;4.71;100.00;100881.61;1757527;81;21432;-56
2020/12/11 04:28:26;;;;;;;18.95;7.25;;;;;;;4.71;100.00;100869.66;1757307;81;21148;-56
2020/12/11 04:30:54;;;;;;;19.10;7.83;;;;;;;4.67;100.00;100870.15;1757487;81;21135;-56
2020/12/11 04:33:22;;;;;;;19.30;7.97;;;;;;;4.59;100.00;100912.70;1757468;81;21187;-56
2020/12/11 04:35:50;;;;;;;19.02;7.95;;;;;;;4.56;100.00;100874.22;1757560;81;21148;-55
2020/12/11 04:38:18;;;;;;;32.28;9.80;;;;;;;4.54;100.00;100887.95;1766319;81;21710;-61
2020/12/11 04:40:45;;;;;;;17.85;7.62;;;;;;;4.53;100.00;100886.20;1738513;82;21136;-55
2020/12/11 04:43:13;;;;;;;22.80;8.80;;;;;;;4.52;100.00;100896.81;1769163;81;20995;-56
2020/12/11 04:45:41;;;;;;;28.52;8.93;;;;;;;4.49;100.00;100903.02;1738569;82;21057;-56
2020/12/11 04:48:09;;;;;;;22.30;8.43;;;;;;;4.42;100.00;100905.30;1769225;81;21090;-56
2020/12/11 04:50:37;;;;;;;25.85;8.13;;;;;;;4.36;100.00;100886.77;1738689;82;21338;-56
2020/12/11 04:53:04;;;;;;;19.87;7.45;;;;;;;4.29;100.00;100903.17;1769237;79;21121;-57
2020/12/11 04:55:35;;;;;;;32.93;9.90;;;;;;;4.24;100.00;100888.59;1738691;82;21165;-56
2020/12/11 04:58:07;;;;;;;23.42;8.10;;;;;;;4.25;100.00;100896.98;1760826;81;21121;-56
2020/12/11 05:00:34;;;;;;;26.05;8.28;;;;;;;4.23;100.00;100870.91;1738791;82;21125;-56
2020/12/11 05:03:02;;;;;;;26.15;8.60;;;;;;;4.22;100.00;100893.03;1769316;81;21394;-56
2020/12/11 05:05:29;;;;;;;24.00;8.50;;;;;;;4.20;100.00;100870.94;1760821;81;21066;-56
2020/12/11 05:07:57;;;;;;;17.37;7.37;;;;;;;4.16;100.00;100881.14;1738756;82;21490;-56
2020/12/11 05:10:24;;;;;;;20.30;6.67;;;;;;;4.10;100.00;100881.19;1760913;81;21221;-57
2020/12/11 05:12:52;;;;;;;33.48;8.58;;;;;;;4.07;100.00;100893.11;1738754;82;21204;-56
2020/12/11 05:15:22;;;;;;;22.00;8.45;;;;;;;4.05;100.00;100871.92;1769283;81;21350;-56
2020/12/11 05:17:50;;;;;;;19.73;7.83;;;;;;;4.06;100.00;100894.01;1738572;82;21033;-57
2020/12/11 05:20:17;;;;;;;16.07;6.72;;;;;;;4.03;100.00;100924.55;1769334;81;21034;-56
2020/12/11 05:22:45;;;;;;;24.45;8.18;;;;;;;3.98;100.00;100940.51;1760776;81;21110;-56
2020/12/11 05:25:13;;;;;;;24.87;9.28;;;;;;;3.92;100.00;100932.55;1738753;82;21117;-57
2020/12/11 05:27:45;;;;;;;28.38;8.33;;;;;;;3.87;100.00;100910.05;1715583;81;21321;-56
2020/12/11 05:30:18;;;;;;;24.35;7.70;;;;;;;3.85;100.00;100911.80;1769274;81;21549;-56
2020/12/11 05:32:57;;;;;;;18.92;8.25;;;;;;;3.80;100.00;100918.47;1738679;82;21061;-56
2020/12/11 05:35:31;;;;;;;20.70;7.62;;;;;;;3.72;100.00;100919.82;1769263;81;21138;-56
2020/12/11 05:38:05;;;;;;;18.98;7.42;;;;;;;3.69;100.00;100923.81;1777444;79;21066;-57
2020/12/11 05:40:39;;;;;;;30.77;8.93;;;;;;;3.68;100.00;100909.22;1756494;81;21561;-56
2020/12/11 05:43:19;;;;;;;21.50;8.88;;;;;;;3.68;100.00;100903.49;1795911;79;21081;-57
2020/12/11 05:45:56;;;;;;;27.13;7.92;;;;;;;3.69;100.00;100925.14;1756209;81;21043;-57
2020/12/11 05:48:38;;;;;;;26.82;9.00;;;;;;;3.67;100.00;100933.55;1795795;79;21150;-57
2020/12/11 05:51:13;;;;;;;21.20;8.60;;;;;;;3.64;100.00;100954.75;1756247;81;21126;-56
2020/12/11 05:53:40;;;;;;;16.95;6.30;;;;;;;3.60;100.00;100938.41;1795871;79;21366;-56
2020/12/11 05:56:08;;;;;;;24.23;8.50;;;;;;;3.61;100.00;100967.16;1756217;81;21105;-56
2020/12/11 05:58:36;;;;;;;21.25;8.23;;;;;;;3.60;100.00;100942.39;1795723;79;21121;-57
2020/12/11 06:01:03;;;;;;;24.90;7.97;;;;;;;3.58;100.00;100950.37;1756231;81;21114;-56
2020/12/11 06:03:31;;;;;;;17.85;7.55;;;;;;;3.56;100.00;100930.94;1795728;79;21062;-57
2020/12/11 06:05:59;;;;;;;22.13;8.35;;;;;;;3.54;100.00;100939.77;1756293;81;21372;-57
2020/12/11 06:08:27;;;;;;;27.25;8.80;;;;;;;3.51;100.00;100916.78;1795657;79;21066;-56
2020/12/11 06:10:55;;;;;;;28.65;9.45;;;;;;;3.51;100.00;100946.41;1756318;81;21102;-57
2020/12/11 06:13:40;;;;;;;27.98;9.63;;;;;;;3.49;100.00;100953.48;1795751;79;21007;-55
2020/12/11 06:16:09;;;;;;;20.62;8.45;;;;;;;3.47;100.00;100942.88;1756199;81;21054;-56
2020/12/11 06:18:37;;;;;;;28.23;8.93;;;;;;;3.44;100.00;100949.51;1795848;79;22080;-56
2020/12/11 06:21:05;;;;;;;28.05;9.23;;;;;;;3.40;100.00;100949.95;1730633;81;21126;-57
2020/12/11 06:23:32;;;;;;;20.08;8.90;;;;;;;3.38;100.00;100945.09;1795816;79;21555;-56
2020/12/11 06:26:01;;;;;;;22.35;8.43;;;;;;;3.37;100.00;100958.38;1756238;81;21294;-56
2020/12/11 06:28:45;;;;;;;22.20;9.08;;;;;;;3.34;100.00;100936.72;1795768;79;21021;-57
2020/12/11 06:31:15;;;;;;;28.45;8.25;;;;;;;3.33;100.00;100935.41;1756159;81;21417;-56
2020/12/11 06:33:46;;;;;;;25.15;7.78;;;;;;;3.28;100.00;100948.67;1795786;79;21035;-57
2020/12/11 06:36:14;;;;;;;21.70;8.65;;;;;;;3.24;100.00;100924.39;1756996;81;21641;-56
2020/12/11 06:38:57;;;;;;;28.15;12.30;;;;;;;3.23;100.00;100938.52;1792954;80;21165;-56
2020/12/11 06:41:34;;;;;;;23.22;8.88;;;;;;;3.21;100.00;100947.78;1790894;80;21188;-56
2020/12/11 06:44:13;;;;;;;22.37;7.80;;;;;;;3.19;100.00;100943.36;1772388;81;22357;-57
2020/12/11 06:46:41;;;;;;;21.45;8.90;;;;;;;3.18;100.00;100928.34;1763447;81;21432;-56
2020/12/11 06:52:05;;;;;;;21.03;9.63;;;;;;;3.17;100.00;100916.88;1829107;76;27921;-57
2020/12/11 06:54:38;;;;;;;20.15;8.20;;;;;;;3.11;100.00;100924.39;1814917;79;20986;-57
2020/12/11 06:57:05;;;;;;;28.02;9.50;;;;;;;3.09;100.00;100910.27;1814796;79;21128;-58
2020/12/11 06:59:37;;;;;;;20.85;9.25;;;;;;;3.06;100.00;100924.84;1814622;79;20891;-57
2020/12/11 07:02:15;;;;;;;19.37;8.08;;;;;;;3.07;100.00;100908.06;1814774;79;20979;-60
2020/12/11 07:04:45;;;;;;;19.73;8.30;;;;;;;3.05;100.00;100916.46;1814771;78;21025;-58
2020/12/11 07:07:13;;;;;;;21.07;8.80;;;;;;;3.03;100.00;100932.80;1814842;79;20907;-58
2020/12/11 07:09:43;;;;;;;23.80;8.05;;;;;;;3.01;100.00;100929.27;1814868;79;21196;-58
2020/12/11 07:12:15;;;;;;;18.30;8.30;;;;;;;2.97;100.00;100923.52;1814912;78;21533;-58
2020/12/11 07:14:45;;;;;;;21.05;8.20;;;;;;;2.94;100.00;100919.55;1814844;79;20916;-58
2020/12/11 07:17:29;;;;;;;19.42;8.48;;;;;;;2.92;100.00;100891.75;1814825;79;20978;-59
2020/12/11 07:19:56;;;;;;;23.98;8.90;;;;;;;2.92;100.00;100909.39;1813322;79;21180;-57
2020/12/11 07:22:24;;;;;;;27.32;8.85;;;;;;;2.91;100.00;100890.42;1782672;80;21381;-58
2020/12/11 07:24:51;;;;;;;20.80;8.78;;;;;;;2.90;100.00;100920.44;1782533;80;21006;-59
2020/12/11 07:27:19;;;;;;;26.00;8.40;;;;;;;2.89;100.00;100908.08;1806420;79;21003;-58
2020/12/11 07:29:49;;;;;;;24.10;8.40;;;;;;;2.91;100.00;100904.56;1813194;79;20962;-59
2020/12/11 07:32:19;;;;;;;20.65;8.28;;;;;;;2.92;100.00;100900.12;1782697;79;21049;-58
2020/12/11 07:34:46;;;;;;;25.77;9.33;;;;;;;2.90;100.00;100889.55;1782535;80;21328;-57
2020/12/11 07:37:15;;;;;;;36.90;8.78;;;;;;;2.89;100.00;100916.02;1801685;79;21053;-59
2020/12/11 07:39:42;;;;;;;23.98;8.78;;;;;;;2.88;100.00;100894.39;1814655;79;20978;-59
2020/12/11 07:42:10;;;;;;;18.40;8.30;;;;;;;2.89;100.00;100910.73;1814811;79;20991;-57
2020/12/11 07:44:39;;;;;;;21.10;9.18;;;;;;;2.91;100.00;100927.50;1814768;79;21030;-58
2020/12/11 07:47:11;;;;;;;23.98;8.93;;;;;;;2.91;100.00;100931.47;1814775;79;21192;-58
2020/12/11 07:49:45;;;;;;;25.62;9.10;;;;;;;2.90;100.00;100929.70;1810001;78;21307;-58
2020/12/11 07:52:22;;;;;;;24.37;9.03;;;;;;;2.89;100.00;100951.35;1814614;79;21082;-58
2020/12/11 07:54:50;;;;;;;26.27;10.85;;;;;;;2.88;100.00;100935.45;1814759;79;20947;-57
2020/12/11 07:57:22;;;;;;;20.68;7.78;;;;;;;2.88;100.00;100907.64;1813876;79;20934;-58
2020/12/11 08:00:00;;;;;;;;;;;;;;;2.86;100.00;100924.41;1806085;79;21211;-59
2020/12/11 08:02:28;;;;;;;22.52;8.68;;;;;;;2.82;100.00;100900.57;1809518;79;20213;-58
2020/12/11 08:04:56;;;;;;;23.35;9.00;;;;;;;2.75;100.00;100903.66;1814071;79;20934;-58
2020/12/11 08:07:25;;;;;;;24.05;9.33;;;;;;;2.74;100.00;100895.27;1783074;79;21029;-58
2020/12/11 08:09:53;;;;;;;21.73;8.55;;;;;;;2.73;100.00;100909.39;1813949;79;21109;-58
2020/12/11 08:12:22;;;;;;;18.85;9.18;;;;;;;2.72;100.00;100898.37;1813753;78;22275;-59
2020/12/11 08:14:50;;;;;;;21.00;9.33;;;;;;;2.69;100.00;100928.82;1812976;78;21569;-59
2020/12/11 08:17:21;;;;;;;20.60;8.33;;;;;;;2.65;100.00;100901.48;1813692;79;21196;-59
2020/12/11 08:19:58;;;;;;;26.42;8.90;;;;;;;2.66;100.00;100879.84;1814142;79;21133;-59
2020/12/11 08:22:38;;;;;;;22.37;8.78;;;;;;;2.68;100.00;100901.91;1814365;79;21081;-58
2020/12/11 08:25:21;;;;;;;19.15;7.75;;;;;;;2.69;100.00;100879.84;1814100;79;21379;-61
2020/12/11 08:27:50;;;;;;;19.77;7.75;;;;;;;2.68;100.00;100880.73;1814226;79;21156;-59
2020/12/11 08:30:19;;;;;;;20.85;8.18;;;;;;;2.64;100.00;100881.16;1814119;79;21114;-58
2020/12/11 08:32:48;;;;;;;25.10;9.03;;;;;;;2.62;100.00;100868.82;1814178;79;21009;-59
2020/12/11 08:35:20;;;;;;;22.22;8.45;;;;;;;2.62;100.00;100868.36;1814213;79;21061;-60
2020/12/11 08:37:52;;;;;;;22.52;8.60;;;;;;;2.65;100.00;100873.69;1784480;79;21449;-59
2020/12/11 08:40:20;;;;;;;19.30;8.65;;;;;;;2.64;100.00;100861.30;1782105;80;21018;-58
2020/12/11 08:46:16;;;;;;;29.90;8.88;;;;;;;2.61;100.00;100868.38;1739720;82;21046;-59
2020/12/11 08:49:16;;;;;;;23.17;9.63;;;;;;;2.57;100.00;100868.39;1738099;82;21101;-59
2020/12/11 08:51:37;;;;;;;17.57;8.50;;;;;;;2.60;100.00;100879.86;1740083;81;22274;-59
2020/12/11 08:54:07;;;;;;;21.23;9.35;;;;;;;2.61;100.00;100860.44;1743470;82;21223;-58
2020/12/11 08:56:37;;;;;;;23.22;8.45;;;;;;;2.61;100.00;100873.22;1742560;82;21098;-58
2020/12/11 08:59:04;;;;;;;27.45;8.78;;;;;;;2.63;100.00;100853.38;1743366;82;21065;-58
2020/12/11 09:01:32;;;;;;;20.95;8.88;;;;;;;2.62;100.00;100870.14;1743432;82;21129;-59
2020/12/11 09:03:59;;;;;;;24.10;9.05;;;;;;;2.62;100.00;100872.80;1743515;82;22217;-58
2020/12/11 09:06:28;;;;;;;24.95;8.95;;;;;;;2.61;100.00;100858.66;1746688;80;21176;-59
2020/12/11 09:08:55;;;;;;;26.57;8.50;;;;;;;2.60;100.00;100856.89;1756803;80;21109;-58
2020/12/11 09:11:24;;;;;;;21.10;8.83;;;;;;;2.58;100.00;100866.18;1769620;80;21066;-58
2020/12/11 09:13:51;;;;;;;22.95;8.13;;;;;;;2.57;100.00;100863.09;1773825;80;21107;-59
2020/12/11 09:16:19;;;;;;;21.33;8.50;;;;;;;2.60;100.00;100850.73;1774074;80;21334;-58
2020/12/11 09:18:47;;;;;;;17.62;8.18;;;;;;;2.60;100.00;100887.34;1774058;80;21505;-58
2020/12/11 09:21:15;;;;;;;22.82;8.38;;;;;;;2.58;100.00;100859.56;1774112;80;21077;-58
2020/12/11 09:23:43;;;;;;;21.45;7.92;;;;;;;2.55;100.00;100839.72;1773989;80;21129;-58
2020/12/11 09:26:10;;;;;;;20.00;9.33;;;;;;;2.56;100.00;100861.33;1774067;80;21105;-59
2020/12/11 09:28:41;;;;;;;26.23;8.58;;;;;;;2.56;100.00;100844.55;1773986;80;22140;-58
2020/12/11 09:31:09;;;;;;;29.32;9.00;;;;;;;2.56;100.00;100829.56;1758464;80;21502;-57
2020/12/11 09:33:40;;;;;;;22.58;9.15;;;;;;;2.60;100.00;100824.27;1771669;80;21496;-57
2020/12/11 09:36:08;;;;;;;23.67;9.10;;;;;;;2.62;100.00;100826.01;1769595;80;21802;-56
2020/12/11 09:38:38;;;;;;;18.12;8.43;;;;;;;2.66;100.00;100837.48;1742625;82;21481;-57
2020/12/11 09:41:07;;;;;;;22.80;8.63;;;;;;;2.68;100.00;100871.45;1743377;82;22480;-57
2020/12/11 09:46:21;;;;;;;21.65;8.45;;;;;;;2.67;100.00;100824.69;1742356;79;21652;-56
2020/12/11 09:49:05;;;;;;;20.00;8.98;;;;;;;2.69;100.00;100832.19;1769926;79;21638;-57
2020/12/11 09:54:22;;;;;;;26.68;10.08;;;;;;;2.66;100.00;100826.47;1772724;80;21222;-56
2020/12/11 09:56:47;;;;;;;24.67;7.65;;;;;;;2.65;100.00;100802.63;1772217;80;21198;-56
2020/12/11 09:59:19;;;;;;;21.23;8.68;;;;;;;2.61;100.00;100802.20;1772956;80;21602;-56
2020/12/11 10:04:25;;;;;;;25.00;9.48;;;;;;;2.59;100.00;100829.98;1773271;80;21592;-57
2020/12/11 10:06:54;;;;;;;28.12;9.43;;;;;;;2.60;100.00;100844.12;1773210;80;21265;-57
2020/12/11 10:09:22;;;;;;;23.22;9.53;;;;;;;2.60;100.00;100819.84;1773214;80;21253;-57
2020/12/11 10:11:53;;;;;;;24.72;9.20;;;;;;;2.60;100.00;100801.77;1773347;80;21579;-57
2020/12/11 10:17:01;;;;;;;26.03;9.90;;;;;;;2.64;100.00;100788.95;1889282;76;22745;-56
2020/12/11 10:19:29;;;;;;;26.77;9.98;;;;;;;2.58;100.00;100796.03;1860142;77;21139;-56
2020/12/11 10:21:56;;;;;;;27.58;9.30;;;;;;;2.58;100.00;100801.32;1860144;77;21363;-57
2020/12/11 10:24:24;;;;;;;25.32;8.90;;;;;;;2.60;100.00;100798.66;1859967;77;21040;-57
2020/12/11 10:26:52;;;;;;;37.08;9.08;;;;;;;2.63;100.00;100788.06;1860154;77;21048;-56
2020/12/11 10:29:19;;;;;;;24.43;8.23;;;;;;;2.65;100.00;100791.61;1860055;76;21410;-57
2020/12/11 10:31:47;;;;;;;22.80;8.60;;;;;;;2.65;100.00;100781.02;1863517;76;21088;-57
2020/12/11 10:34:16;;;;;;;21.75;9.40;;;;;;;2.66;100.00;100797.77;1863294;77;21332;-55
2020/12/11 10:36:44;;;;;;;22.00;9.90;;;;;;;2.67;100.00;100779.67;1861834;77;21614;-56
2020/12/11 10:39:12;;;;;;;20.52;10.28;;;;;;;2.71;100.00;100793.34;1860002;77;21115;-56
2020/12/11 10:41:42;;;;;;;25.02;9.45;;;;;;;2.74;100.00;100784.53;1860047;77;21634;-56
2020/12/11 10:44:10;;;;;;;20.23;9.05;;;;;;;2.72;100.00;100795.11;1841624;76;21043;-56
2020/12/11 10:46:38;;;;;;;18.35;8.58;;;;;;;2.71;100.00;100806.58;1824798;78;22224;-56
2020/12/11 10:49:05;;;;;;;21.73;9.33;;;;;;;2.70;100.00;100782.31;1824603;78;21157;-57
2020/12/11 10:51:33;;;;;;;31.27;9.63;;;;;;;2.68;100.00;100782.77;1824617;77;21031;-56
2020/12/11 10:54:01;;;;;;;30.48;10.30;;;;;;;2.71;100.00;100778.78;1824553;78;21122;-56
2020/12/11 10:56:29;;;;;;;26.48;10.63;;;;;;;2.74;100.00;100762.89;1829860;77;21142;-56
2020/12/11 10:58:57;;;;;;;29.95;10.18;;;;;;;2.74;100.00;100780.09;1770740;80;22311;-57
2020/12/11 11:01:25;;;;;;;23.85;9.18;;;;;;;2.70;100.00;100771.73;1771755;80;21142;-56
2020/12/11 11:03:52;;;;;;;32.70;9.20;;;;;;;2.66;100.00;100755.42;1783101;79;21178;-56
2020/12/11 11:06:25;;;;;;;23.22;9.75;;;;;;;2.64;100.00;100763.80;1785279;79;21137;-57
2020/12/11 11:11:41;;;;;;;25.17;10.32;;;;;;;2.66;100.00;100760.71;1812661;78;21768;-57
2020/12/11 11:29:41;;;;;;;25.70;10.20;;;;;;;2.68;100.00;100724.52;1840638;78;20973;-56
2020/12/11 11:32:09;;;;;;;25.37;10.08;;;;;;;2.68;100.00;100721.87;1840771;78;20906;-57
2020/12/11 11:34:37;;;;;;;30.72;9.30;;;;;;;2.69;100.00;100734.22;1840624;78;21021;-56
2020/12/11 11:37:04;;;;;;;27.15;9.85;;;;;;;2.72;100.00;100717.00;1806666;78;21099;-56
2020/12/11 11:39:32;;;;;;;21.95;9.85;;;;;;;2.74;100.00;100735.55;1824645;78;21153;-56
2020/12/11 11:41:59;;;;;;;34.20;11.05;;;;;;;2.73;100.00;100743.91;1824713;78;21086;-56
2020/12/11 11:44:38;;;;;;;28.25;10.40;;;;;;;2.74;100.00;100742.16;1824692;78;20983;-56
2020/12/11 11:46:58;;;;;;;31.23;10.05;;;;;;;2.74;100.00;100760.23;1823650;78;21642;-56
2020/12/11 11:54:50;;;;;;;25.30;10.85;;;;;;;2.81;100.00;100728.02;1817624;78;21144;-56
2020/12/11 11:57:17;;;;;;;25.20;10.18;;;;;;;2.83;100.00;100725.80;1834338;77;21371;-57
2020/12/11 11:59:45;;;;;;;31.40;10.58;;;;;;;2.86;100.00;100729.77;1834209;78;21049;-57
2020/12/11 12:02:12;;;;;;;26.70;10.63;;;;;;;2.89;100.00;100750.50;1834256;77;20943;-57
2020/12/11 12:04:41;;;;;;;29.02;11.03;;;;;;;2.86;100.00;100728.44;1834069;78;21042;-57